Schedule Details

Flight Number: CPX413
Departure: Tulsa International Airport (KTUL) at N/A
Arrival: Miami International Airport (KMIA) at N/A
Route: MAYJI FSM LIT SQS MEI ACORI BULZI NICKI Q81 ENDEW JUULI SSCOT5


Current Weather Information
KTUL 151953Z 01014G22KT 3SM -FZDZ BR OVC012 M01/M03 A2986 RMK AO2 FZDZB33 SLP116 P0000 I1000 T10111033
KMIA 151953Z 14009KT 10SM SCT032 BKN250 26/19 A2993 RMK AO2 SLP136 T02560189

Route Map